sensor_id;sensor_type;location;lat;lon;timestamp;P1;durP1;ratioP1;P2;durP2;ratioP2
69319;SDS011;56467;53.502;49.248;2022-07-09T00:00:37;5.65;;;4.15;;
69319;SDS011;56467;53.502;49.248;2022-07-09T00:03:03;6.13;;;4.20;;
69319;SDS011;56467;53.502;49.248;2022-07-09T00:05:28;7.47;;;5.18;;
69319;SDS011;56467;53.502;49.248;2022-07-09T00:07:54;7.28;;;5.45;;
69319;SDS011;56467;53.502;49.248;2022-07-09T00:10:20;7.90;;;5.65;;
69319;SDS011;56467;53.502;49.248;2022-07-09T00:12:46;8.80;;;5.95;;
69319;SDS011;56467;53.502;49.248;2022-07-09T00:15:11;10.10;;;6.43;;
69319;SDS011;56467;53.502;49.248;2022-07-09T00:17:37;8.10;;;6.07;;
69319;SDS011;56467;53.502;49.248;2022-07-09T00:20:03;8.02;;;5.88;;
69319;SDS011;56467;53.502;49.248;2022-07-09T00:22:33;7.88;;;6.00;;
69319;SDS011;56467;53.502;49.248;2022-07-09T00:24:59;12.07;;;6.38;;
69319;SDS011;56467;53.502;49.248;2022-07-09T00:27:26;8.13;;;5.97;;
69319;SDS011;56467;53.502;49.248;2022-07-09T00:29:52;8.40;;;5.90;;
69319;SDS011;56467;53.502;49.248;2022-07-09T00:32:18;8.02;;;6.30;;
69319;SDS011;56467;53.502;49.248;2022-07-09T00:34:43;8.43;;;6.20;;
69319;SDS011;56467;53.502;49.248;2022-07-09T00:37:09;7.90;;;5.75;;
69319;SDS011;56467;53.502;49.248;2022-07-09T00:39:35;7.40;;;5.25;;
69319;SDS011;56467;53.502;49.248;2022-07-09T00:42:02;7.55;;;5.50;;
69319;SDS011;56467;53.502;49.248;2022-07-09T00:44:32;9.18;;;5.70;;
69319;SDS011;56467;53.502;49.248;2022-07-09T00:46:58;8.10;;;4.95;;
69319;SDS011;56467;53.502;49.248;2022-07-09T00:49:24;7.35;;;4.93;;
69319;SDS011;56467;53.502;49.248;2022-07-09T00:51:52;6.43;;;4.80;;
69319;SDS011;56467;53.502;49.248;2022-07-09T00:54:17;8.73;;;4.63;;
69319;SDS011;56467;53.502;49.248;2022-07-09T00:56:43;6.63;;;4.60;;
69319;SDS011;56467;53.502;49.248;2022-07-09T00:59:09;7.53;;;4.78;;
69319;SDS011;56467;53.502;49.248;2022-07-09T01:01:38;7.10;;;4.65;;
69319;SDS011;56467;53.502;49.248;2022-07-09T01:04:06;5.65;;;4.53;;
69319;SDS011;56467;53.502;49.248;2022-07-09T01:06:32;6.43;;;4.30;;
69319;SDS011;56467;53.502;49.248;2022-07-09T01:09:01;5.38;;;3.92;;
69319;SDS011;56467;53.502;49.248;2022-07-09T01:11:28;7.05;;;3.90;;
69319;SDS011;56467;53.502;49.248;2022-07-09T01:13:54;5.45;;;4.03;;
69319;SDS011;56467;53.502;49.248;2022-07-09T01:16:20;5.72;;;3.60;;
69319;SDS011;56467;53.502;49.248;2022-07-09T01:18:46;5.43;;;3.80;;
69319;SDS011;56467;53.502;49.248;2022-07-09T01:21:13;4.50;;;3.45;;
69319;SDS011;56467;53.502;49.248;2022-07-09T01:23:39;4.57;;;3.40;;
69319;SDS011;56467;53.502;49.248;2022-07-09T01:26:05;4.10;;;3.38;;
69319;SDS011;56467;53.502;49.248;2022-07-09T01:28:31;4.60;;;3.17;;
69319;SDS011;56467;53.502;49.248;2022-07-09T01:30:57;5.57;;;3.42;;
69319;SDS011;56467;53.502;49.248;2022-07-09T01:33:23;4.30;;;3.35;;
69319;SDS011;56467;53.502;49.248;2022-07-09T01:35:49;5.70;;;3.20;;
69319;SDS011;56467;53.502;49.248;2022-07-09T01:38:15;5.13;;;3.25;;
69319;SDS011;56467;53.502;49.248;2022-07-09T01:40:40;3.65;;;2.97;;
69319;SDS011;56467;53.502;49.248;2022-07-09T01:43:06;4.18;;;3.25;;
69319;SDS011;56467;53.502;49.248;2022-07-09T01:45:32;3.90;;;2.95;;
69319;SDS011;56467;53.502;49.248;2022-07-09T01:47:58;4.55;;;3.30;;
69319;SDS011;56467;53.502;49.248;2022-07-09T01:50:23;4.40;;;2.80;;
69319;SDS011;56467;53.502;49.248;2022-07-09T01:52:49;4.40;;;2.95;;
69319;SDS011;56467;53.502;49.248;2022-07-09T01:55:16;6.85;;;3.03;;
69319;SDS011;56467;53.502;49.248;2022-07-09T01:57:41;6.22;;;2.85;;
69319;SDS011;56467;53.502;49.248;2022-07-09T02:00:07;5.15;;;3.03;;
69319;SDS011;56467;53.502;49.248;2022-07-09T02:02:34;5.35;;;2.78;;
69319;SDS011;56467;53.502;49.248;2022-07-09T02:04:59;5.65;;;2.70;;
69319;SDS011;56467;53.502;49.248;2022-07-09T02:07:25;6.50;;;2.92;;
69319;SDS011;56467;53.502;49.248;2022-07-09T02:09:51;5.15;;;2.83;;
69319;SDS011;56467;53.502;49.248;2022-07-09T02:12:17;6.25;;;2.95;;
69319;SDS011;56467;53.502;49.248;2022-07-09T02:14:42;6.35;;;2.95;;
69319;SDS011;56467;53.502;49.248;2022-07-09T02:17:09;5.28;;;2.60;;
69319;SDS011;56467;53.502;49.248;2022-07-09T02:19:34;7.70;;;3.10;;
69319;SDS011;56467;53.502;49.248;2022-07-09T02:22:00;7.05;;;2.85;;
69319;SDS011;56467;53.502;49.248;2022-07-09T02:24:26;6.40;;;3.13;;
69319;SDS011;56467;53.502;49.248;2022-07-09T02:26:53;4.78;;;2.53;;
69319;SDS011;56467;53.502;49.248;2022-07-09T02:29:19;4.78;;;2.53;;
69319;SDS011;56467;53.502;49.248;2022-07-09T02:31:45;7.38;;;2.55;;
69319;SDS011;56467;53.502;49.248;2022-07-09T02:34:11;5.75;;;2.35;;
69319;SDS011;56467;53.502;49.248;2022-07-09T02:36:36;6.70;;;2.60;;
69319;SDS011;56467;53.502;49.248;2022-07-09T02:39:02;6.32;;;2.60;;
69319;SDS011;56467;53.502;49.248;2022-07-09T02:41:28;7.00;;;2.75;;
69319;SDS011;56467;53.502;49.248;2022-07-09T02:43:54;6.05;;;2.47;;
69319;SDS011;56467;53.502;49.248;2022-07-09T02:46:20;7.90;;;2.60;;
69319;SDS011;56467;53.502;49.248;2022-07-09T02:48:45;6.63;;;2.35;;
69319;SDS011;56467;53.502;49.248;2022-07-09T02:51:11;6.97;;;2.67;;
69319;SDS011;56467;53.502;49.248;2022-07-09T02:53:37;5.75;;;2.33;;
69319;SDS011;56467;53.502;49.248;2022-07-09T02:56:02;7.57;;;2.67;;
69319;SDS011;56467;53.502;49.248;2022-07-09T02:58:28;5.65;;;2.40;;
69319;SDS011;56467;53.502;49.248;2022-07-09T03:00:55;4.97;;;2.33;;
69319;SDS011;56467;53.502;49.248;2022-07-09T03:03:21;4.93;;;2.30;;
69319;SDS011;56467;53.502;49.248;2022-07-09T03:05:48;4.88;;;2.20;;
69319;SDS011;56467;53.502;49.248;2022-07-09T03:08:14;4.10;;;2.13;;
69319;SDS011;56467;53.502;49.248;2022-07-09T03:10:40;5.22;;;2.10;;
69319;SDS011;56467;53.502;49.248;2022-07-09T03:13:06;5.35;;;2.10;;
69319;SDS011;56467;53.502;49.248;2022-07-09T03:15:31;4.75;;;2.17;;
69319;SDS011;56467;53.502;49.248;2022-07-09T03:17:57;3.45;;;1.85;;
69319;SDS011;56467;53.502;49.248;2022-07-09T03:20:23;4.00;;;1.80;;
69319;SDS011;56467;53.502;49.248;2022-07-09T03:22:49;4.70;;;2.03;;
69319;SDS011;56467;53.502;49.248;2022-07-09T03:25:14;4.20;;;1.83;;
69319;SDS011;56467;53.502;49.248;2022-07-09T03:27:40;3.00;;;1.70;;
69319;SDS011;56467;53.502;49.248;2022-07-09T03:30:06;3.10;;;1.80;;
69319;SDS011;56467;53.502;49.248;2022-07-09T03:32:32;3.33;;;1.67;;
69319;SDS011;56467;53.502;49.248;2022-07-09T03:34:57;3.35;;;1.70;;
69319;SDS011;56467;53.502;49.248;2022-07-09T03:37:23;3.35;;;1.80;;
69319;SDS011;56467;53.502;49.248;2022-07-09T03:39:49;2.95;;;1.52;;
69319;SDS011;56467;53.502;49.248;2022-07-09T03:42:14;3.90;;;1.73;;
69319;SDS011;56467;53.502;49.248;2022-07-09T03:44:40;2.80;;;1.40;;
69319;SDS011;56467;53.502;49.248;2022-07-09T03:47:06;2.92;;;1.50;;
69319;SDS011;56467;53.502;49.248;2022-07-09T03:49:33;2.35;;;1.30;;
69319;SDS011;56467;53.502;49.248;2022-07-09T03:51:59;3.58;;;1.52;;
69319;SDS011;56467;53.502;49.248;2022-07-09T03:54:25;2.83;;;1.40;;
69319;SDS011;56467;53.502;49.248;2022-07-09T03:56:51;1.98;;;1.30;;
69319;SDS011;56467;53.502;49.248;2022-07-09T03:59:17;2.38;;;1.38;;
69319;SDS011;56467;53.502;49.248;2022-07-09T04:01:43;1.85;;;1.40;;
69319;SDS011;56467;53.502;49.248;2022-07-09T04:04:09;1.88;;;1.27;;
69319;SDS011;56467;53.502;49.248;2022-07-09T04:06:35;1.75;;;1.30;;
69319;SDS011;56467;53.502;49.248;2022-07-09T04:09:01;2.38;;;1.45;;
69319;SDS011;56467;53.502;49.248;2022-07-09T04:11:32;1.88;;;1.25;;
69319;SDS011;56467;53.502;49.248;2022-07-09T04:13:59;2.28;;;1.33;;
69319;SDS011;56467;53.502;49.248;2022-07-09T04:16:26;2.17;;;1.30;;
69319;SDS011;56467;53.502;49.248;2022-07-09T04:18:53;1.40;;;1.25;;
69319;SDS011;56467;53.502;49.248;2022-07-09T04:21:19;1.58;;;1.30;;
69319;SDS011;56467;53.502;49.248;2022-07-09T04:23:48;1.52;;;1.20;;
69319;SDS011;56467;53.502;49.248;2022-07-09T04:26:18;1.77;;;1.20;;
69319;SDS011;56467;53.502;49.248;2022-07-09T04:28:44;1.58;;;1.08;;
69319;SDS011;56467;53.502;49.248;2022-07-09T04:31:10;1.48;;;1.10;;
69319;SDS011;56467;53.502;49.248;2022-07-09T04:33:37;1.55;;;1.05;;
69319;SDS011;56467;53.502;49.248;2022-07-09T04:36:03;2.05;;;1.20;;
69319;SDS011;56467;53.502;49.248;2022-07-09T04:38:29;2.17;;;1.25;;
69319;SDS011;56467;53.502;49.248;2022-07-09T04:40:56;1.88;;;1.17;;
69319;SDS011;56467;53.502;49.248;2022-07-09T04:43:22;1.95;;;1.30;;
69319;SDS011;56467;53.502;49.248;2022-07-09T04:45:47;1.63;;;1.20;;
69319;SDS011;56467;53.502;49.248;2022-07-09T04:48:13;1.55;;;1.13;;
69319;SDS011;56467;53.502;49.248;2022-07-09T04:50:39;1.48;;;1.10;;
69319;SDS011;56467;53.502;49.248;2022-07-09T04:53:05;1.40;;;1.05;;
69319;SDS011;56467;53.502;49.248;2022-07-09T04:55:31;1.00;;;0.90;;
69319;SDS011;56467;53.502;49.248;2022-07-09T04:57:57;1.73;;;1.10;;
69319;SDS011;56467;53.502;49.248;2022-07-09T05:00:23;1.58;;;1.00;;
69319;SDS011;56467;53.502;49.248;2022-07-09T05:02:48;1.42;;;1.08;;
69319;SDS011;56467;53.502;49.248;2022-07-09T05:05:14;2.30;;;1.50;;
69319;SDS011;56467;53.502;49.248;2022-07-09T05:07:40;1.50;;;0.85;;
69319;SDS011;56467;53.502;49.248;2022-07-09T05:10:07;1.10;;;1.00;;
69319;SDS011;56467;53.502;49.248;2022-07-09T05:12:34;1.02;;;0.90;;
69319;SDS011;56467;53.502;49.248;2022-07-09T05:15:00;0.90;;;0.80;;
69319;SDS011;56467;53.502;49.248;2022-07-09T05:17:28;1.10;;;1.00;;
69319;SDS011;56467;53.502;49.248;2022-07-09T05:19:58;1.00;;;0.90;;
69319;SDS011;56467;53.502;49.248;2022-07-09T05:22:24;2.25;;;1.23;;
69319;SDS011;56467;53.502;49.248;2022-07-09T05:24:50;1.13;;;1.00;;
69319;SDS011;56467;53.502;49.248;2022-07-09T05:27:16;0.90;;;0.80;;
69319;SDS011;56467;53.502;49.248;2022-07-09T05:29:41;0.80;;;0.80;;
69319;SDS011;56467;53.502;49.248;2022-07-09T05:32:07;1.17;;;0.80;;
69319;SDS011;56467;53.502;49.248;2022-07-09T05:34:33;0.95;;;0.70;;
69319;SDS011;56467;53.502;49.248;2022-07-09T05:36:59;0.90;;;0.82;;
69319;SDS011;56467;53.502;49.248;2022-07-09T05:39:25;1.52;;;0.80;;
69319;SDS011;56467;53.502;49.248;2022-07-09T05:41:50;0.88;;;0.88;;
69319;SDS011;56467;53.502;49.248;2022-07-09T05:44:16;0.70;;;0.70;;
69319;SDS011;56467;53.502;49.248;2022-07-09T05:46:42;0.95;;;0.70;;
69319;SDS011;56467;53.502;49.248;2022-07-09T05:49:07;0.60;;;0.60;;
69319;SDS011;56467;53.502;49.248;2022-07-09T05:51:33;0.80;;;0.80;;
69319;SDS011;56467;53.502;49.248;2022-07-09T05:53:59;0.75;;;0.70;;
69319;SDS011;56467;53.502;49.248;2022-07-09T05:56:25;1.02;;;0.80;;
69319;SDS011;56467;53.502;49.248;2022-07-09T05:58:51;0.85;;;0.80;;
69319;SDS011;56467;53.502;49.248;2022-07-09T06:01:17;0.75;;;0.70;;
69319;SDS011;56467;53.502;49.248;2022-07-09T06:03:43;0.70;;;0.70;;
69319;SDS011;56467;53.502;49.248;2022-07-09T06:06:09;0.80;;;0.70;;
69319;SDS011;56467;53.502;49.248;2022-07-09T06:08:35;0.85;;;0.70;;
69319;SDS011;56467;53.502;49.248;2022-07-09T06:11:02;0.98;;;0.70;;
69319;SDS011;56467;53.502;49.248;2022-07-09T06:13:28;1.50;;;0.70;;
69319;SDS011;56467;53.502;49.248;2022-07-09T06:15:54;0.63;;;0.63;;
69319;SDS011;56467;53.502;49.248;2022-07-09T06:18:20;0.70;;;0.70;;
69319;SDS011;56467;53.502;49.248;2022-07-09T06:20:47;0.88;;;0.65;;
69319;SDS011;56467;53.502;49.248;2022-07-09T06:23:13;0.82;;;0.70;;
69319;SDS011;56467;53.502;49.248;2022-07-09T06:25:39;0.50;;;0.50;;
69319;SDS011;56467;53.502;49.248;2022-07-09T06:28:06;0.60;;;0.60;;
69319;SDS011;56467;53.502;49.248;2022-07-09T06:30:32;0.80;;;0.70;;
69319;SDS011;56467;53.502;49.248;2022-07-09T06:33:01;1.67;;;0.80;;
69319;SDS011;56467;53.502;49.248;2022-07-09T06:35:27;1.10;;;1.00;;
69319;SDS011;56467;53.502;49.248;2022-07-09T06:37:53;1.70;;;1.27;;
69319;SDS011;56467;53.502;49.248;2022-07-09T06:40:18;1.42;;;0.93;;
69319;SDS011;56467;53.502;49.248;2022-07-09T06:42:44;2.15;;;1.25;;
69319;SDS011;56467;53.502;49.248;2022-07-09T06:45:10;3.85;;;1.25;;
69319;SDS011;56467;53.502;49.248;2022-07-09T06:47:36;2.53;;;1.30;;
69319;SDS011;56467;53.502;49.248;2022-07-09T06:50:02;1.63;;;1.40;;
69319;SDS011;56467;53.502;49.248;2022-07-09T06:52:28;2.30;;;1.42;;
69319;SDS011;56467;53.502;49.248;2022-07-09T06:54:54;2.53;;;1.35;;
69319;SDS011;56467;53.502;49.248;2022-07-09T06:57:19;2.42;;;1.40;;
69319;SDS011;56467;53.502;49.248;2022-07-09T06:59:45;2.45;;;1.75;;
69319;SDS011;56467;53.502;49.248;2022-07-09T07:02:12;5.82;;;2.10;;
69319;SDS011;56467;53.502;49.248;2022-07-09T07:04:38;3.22;;;1.95;;
69319;SDS011;56467;53.502;49.248;2022-07-09T07:07:04;5.28;;;2.30;;
69319;SDS011;56467;53.502;49.248;2022-07-09T07:09:30;5.10;;;2.28;;
69319;SDS011;56467;53.502;49.248;2022-07-09T07:11:56;4.78;;;2.20;;
69319;SDS011;56467;53.502;49.248;2022-07-09T07:14:23;6.32;;;2.58;;
69319;SDS011;56467;53.502;49.248;2022-07-09T07:16:49;5.63;;;2.22;;
69319;SDS011;56467;53.502;49.248;2022-07-09T07:19:15;5.43;;;2.20;;
69319;SDS011;56467;53.502;49.248;2022-07-09T07:21:42;4.90;;;2.28;;
69319;SDS011;56467;53.502;49.248;2022-07-09T07:24:08;4.65;;;2.40;;
69319;SDS011;56467;53.502;49.248;2022-07-09T07:26:34;4.38;;;2.30;;
69319;SDS011;56467;53.502;49.248;2022-07-09T07:29:00;4.80;;;2.40;;
69319;SDS011;56467;53.502;49.248;2022-07-09T07:31:26;3.53;;;2.30;;
69319;SDS011;56467;53.502;49.248;2022-07-09T07:33:52;3.30;;;1.95;;
69319;SDS011;56467;53.502;49.248;2022-07-09T07:36:18;4.47;;;2.42;;
69319;SDS011;56467;53.502;49.248;2022-07-09T07:38:44;3.00;;;2.30;;
69319;SDS011;56467;53.502;49.248;2022-07-09T07:41:11;3.50;;;2.08;;
69319;SDS011;56467;53.502;49.248;2022-07-09T07:43:37;3.60;;;2.10;;
69319;SDS011;56467;53.502;49.248;2022-07-09T07:46:03;2.80;;;2.10;;
69319;SDS011;56467;53.502;49.248;2022-07-09T07:48:29;4.25;;;2.15;;
69319;SDS011;56467;53.502;49.248;2022-07-09T07:50:56;4.85;;;2.28;;
69319;SDS011;56467;53.502;49.248;2022-07-09T07:53:22;3.20;;;2.30;;
69319;SDS011;56467;53.502;49.248;2022-07-09T07:55:48;3.38;;;2.40;;
69319;SDS011;56467;53.502;49.248;2022-07-09T07:58:14;3.05;;;2.20;;
69319;SDS011;56467;53.502;49.248;2022-07-09T08:00:40;3.33;;;2.10;;
69319;SDS011;56467;53.502;49.248;2022-07-09T08:03:06;4.78;;;2.50;;
69319;SDS011;56467;53.502;49.248;2022-07-09T08:05:32;3.92;;;2.22;;
69319;SDS011;56467;53.502;49.248;2022-07-09T08:07:57;3.88;;;2.15;;
69319;SDS011;56467;53.502;49.248;2022-07-09T08:10:23;3.03;;;2.33;;
69319;SDS011;56467;53.502;49.248;2022-07-09T08:12:51;3.05;;;2.25;;
69319;SDS011;56467;53.502;49.248;2022-07-09T08:15:17;3.22;;;2.10;;
69319;SDS011;56467;53.502;49.248;2022-07-09T08:17:42;4.18;;;2.30;;
69319;SDS011;56467;53.502;49.248;2022-07-09T08:20:08;3.00;;;2.22;;
69319;SDS011;56467;53.502;49.248;2022-07-09T08:22:34;3.28;;;2.22;;
69319;SDS011;56467;53.502;49.248;2022-07-09T08:25:01;4.80;;;2.30;;
69319;SDS011;56467;53.502;49.248;2022-07-09T08:27:27;2.90;;;2.30;;
69319;SDS011;56467;53.502;49.248;2022-07-09T08:29:53;3.22;;;2.20;;
69319;SDS011;56467;53.502;49.248;2022-07-09T08:32:19;3.88;;;2.45;;
69319;SDS011;56467;53.502;49.248;2022-07-09T08:34:45;6.13;;;2.80;;
69319;SDS011;56467;53.502;49.248;2022-07-09T08:37:10;13.43;;;4.38;;
69319;SDS011;56467;53.502;49.248;2022-07-09T08:39:36;16.98;;;5.68;;
69319;SDS011;56467;53.502;49.248;2022-07-09T08:42:02;22.58;;;6.38;;
69319;SDS011;56467;53.502;49.248;2022-07-09T08:44:32;20.70;;;6.55;;
69319;SDS011;56467;53.502;49.248;2022-07-09T08:47:02;19.40;;;6.30;;
69319;SDS011;56467;53.502;49.248;2022-07-09T08:49:28;20.23;;;6.75;;
69319;SDS011;56467;53.502;49.248;2022-07-09T08:51:56;19.00;;;5.70;;
69319;SDS011;56467;53.502;49.248;2022-07-09T08:54:22;18.77;;;6.25;;
69319;SDS011;56467;53.502;49.248;2022-07-09T08:56:52;19.67;;;5.75;;
69319;SDS011;56467;53.502;49.248;2022-07-09T08:59:18;15.02;;;5.05;;
69319;SDS011;56467;53.502;49.248;2022-07-09T09:01:44;17.98;;;5.65;;
69319;SDS011;56467;53.502;49.248;2022-07-09T09:04:10;15.85;;;5.30;;
69319;SDS011;56467;53.502;49.248;2022-07-09T09:06:36;15.35;;;5.50;;
69319;SDS011;56467;53.502;49.248;2022-07-09T09:09:03;14.25;;;4.97;;
69319;SDS011;56467;53.502;49.248;2022-07-09T09:11:29;13.63;;;4.72;;
69319;SDS011;56467;53.502;49.248;2022-07-09T09:13:56;14.52;;;5.13;;
69319;SDS011;56467;53.502;49.248;2022-07-09T09:16:23;12.43;;;4.85;;
69319;SDS011;56467;53.502;49.248;2022-07-09T09:18:50;10.85;;;4.38;;
69319;SDS011;56467;53.502;49.248;2022-07-09T09:21:18;11.13;;;4.30;;
69319;SDS011;56467;53.502;49.248;2022-07-09T09:23:50;10.50;;;4.47;;
69319;SDS011;56467;53.502;49.248;2022-07-09T09:26:18;14.50;;;4.63;;
69319;SDS011;56467;53.502;49.248;2022-07-09T09:28:49;9.77;;;4.10;;
69319;SDS011;56467;53.502;49.248;2022-07-09T09:31:22;9.57;;;4.30;;
69319;SDS011;56467;53.502;49.248;2022-07-09T09:33:49;9.80;;;3.65;;
69319;SDS011;56467;53.502;49.248;2022-07-09T09:36:29;9.48;;;3.80;;
69319;SDS011;56467;53.502;49.248;2022-07-09T09:39:15;9.80;;;3.92;;
69319;SDS011;56467;53.502;49.248;2022-07-09T09:41:43;7.50;;;3.97;;
69319;SDS011;56467;53.502;49.248;2022-07-09T09:44:32;9.75;;;3.35;;
69319;SDS011;56467;53.502;49.248;2022-07-09T09:47:05;7.68;;;3.28;;
69319;SDS011;56467;53.502;49.248;2022-07-09T09:49:32;6.97;;;3.28;;
69319;SDS011;56467;53.502;49.248;2022-07-09T09:52:00;8.75;;;3.17;;
69319;SDS011;56467;53.502;49.248;2022-07-09T09:54:30;6.35;;;3.00;;
69319;SDS011;56467;53.502;49.248;2022-07-09T09:56:57;6.30;;;3.30;;
69319;SDS011;56467;53.502;49.248;2022-07-09T09:59:24;8.50;;;3.00;;
69319;SDS011;56467;53.502;49.248;2022-07-09T10:01:50;6.82;;;3.00;;
69319;SDS011;56467;53.502;49.248;2022-07-09T10:04:16;7.35;;;3.03;;
69319;SDS011;56467;53.502;49.248;2022-07-09T10:06:43;6.97;;;2.80;;
69319;SDS011;56467;53.502;49.248;2022-07-09T10:09:13;5.47;;;2.63;;
69319;SDS011;56467;53.502;49.248;2022-07-09T10:11:41;6.00;;;2.60;;
69319;SDS011;56467;53.502;49.248;2022-07-09T10:14:14;6.60;;;2.90;;
69319;SDS011;56467;53.502;49.248;2022-07-09T10:16:50;6.47;;;2.67;;
69319;SDS011;56467;53.502;49.248;2022-07-09T10:19:30;5.60;;;2.67;;
69319;SDS011;56467;53.502;49.248;2022-07-09T10:21:58;4.97;;;2.63;;
69319;SDS011;56467;53.502;49.248;2022-07-09T10:24:28;4.63;;;2.33;;
69319;SDS011;56467;53.502;49.248;2022-07-09T10:27:02;5.90;;;2.67;;
69319;SDS011;56467;53.502;49.248;2022-07-09T10:29:29;6.68;;;2.78;;
69319;SDS011;56467;53.502;49.248;2022-07-09T10:31:55;5.38;;;2.60;;
69319;SDS011;56467;53.502;49.248;2022-07-09T10:37:36;4.97;;;2.65;;
69319;SDS011;56467;53.502;49.248;2022-07-09T10:40:10;4.55;;;2.60;;
69319;SDS011;56467;53.502;49.248;2022-07-09T10:42:41;4.60;;;2.42;;
69319;SDS011;56467;53.502;49.248;2022-07-09T10:45:19;5.30;;;2.42;;
69319;SDS011;56467;53.502;49.248;2022-07-09T10:47:49;5.18;;;2.50;;
69319;SDS011;56467;53.502;49.248;2022-07-09T10:50:19;4.05;;;2.13;;
69319;SDS011;56467;53.502;49.248;2022-07-09T10:52:45;3.67;;;2.20;;
69319;SDS011;56467;53.502;49.248;2022-07-09T10:55:12;3.67;;;1.95;;
69319;SDS011;56467;53.502;49.248;2022-07-09T10:57:44;3.83;;;2.22;;
69319;SDS011;56467;53.502;49.248;2022-07-09T11:00:13;2.63;;;1.70;;
69319;SDS011;56467;53.502;49.248;2022-07-09T11:02:50;3.78;;;2.10;;
69319;SDS011;56467;53.502;49.248;2022-07-09T11:05:16;5.13;;;2.15;;
69319;SDS011;56467;53.502;49.248;2022-07-09T11:07:42;3.40;;;1.90;;
69319;SDS011;56467;53.502;49.248;2022-07-09T11:10:08;2.95;;;1.67;;
69319;SDS011;56467;53.502;49.248;2022-07-09T11:12:47;3.25;;;1.75;;
69319;SDS011;56467;53.502;49.248;2022-07-09T11:15:19;3.13;;;1.70;;
69319;SDS011;56467;53.502;49.248;2022-07-09T11:18:28;4.30;;;1.80;;
69319;SDS011;56467;53.502;49.248;2022-07-09T11:20:38;2.90;;;1.70;;
69319;SDS011;56467;53.502;49.248;2022-07-09T11:23:05;3.05;;;1.85;;
69319;SDS011;56467;53.502;49.248;2022-07-09T11:25:33;2.85;;;1.60;;
69319;SDS011;56467;53.502;49.248;2022-07-09T11:28:00;3.08;;;1.70;;
69319;SDS011;56467;53.502;49.248;2022-07-09T11:30:26;2.60;;;1.60;;
69319;SDS011;56467;53.502;49.248;2022-07-09T11:32:53;2.13;;;1.50;;
69319;SDS011;56467;53.502;49.248;2022-07-09T11:35:26;3.08;;;1.80;;
69319;SDS011;56467;53.502;49.248;2022-07-09T11:37:56;2.30;;;1.67;;
69319;SDS011;56467;53.502;49.248;2022-07-09T11:40:24;2.60;;;1.67;;
69319;SDS011;56467;53.502;49.248;2022-07-09T11:42:50;2.65;;;1.50;;
69319;SDS011;56467;53.502;49.248;2022-07-09T11:45:20;2.13;;;1.45;;
69319;SDS011;56467;53.502;49.248;2022-07-09T11:48:28;2.30;;;1.60;;
69319;SDS011;56467;53.502;49.248;2022-07-09T11:50:47;2.75;;;1.40;;
69319;SDS011;56467;53.502;49.248;2022-07-09T11:53:23;1.92;;;1.55;;
69319;SDS011;56467;53.502;49.248;2022-07-09T11:55:59;2.55;;;1.50;;
69319;SDS011;56467;53.502;49.248;2022-07-09T11:58:31;2.00;;;1.25;;
69319;SDS011;56467;53.502;49.248;2022-07-09T12:00:57;2.13;;;1.38;;
69319;SDS011;56467;53.502;49.248;2022-07-09T12:03:28;2.42;;;1.50;;
69319;SDS011;56467;53.502;49.248;2022-07-09T12:05:58;1.92;;;1.40;;
69319;SDS011;56467;53.502;49.248;2022-07-09T12:08:27;1.90;;;1.48;;
69319;SDS011;56467;53.502;49.248;2022-07-09T12:10:57;1.92;;;1.25;;
69319;SDS011;56467;53.502;49.248;2022-07-09T12:13:24;2.38;;;1.38;;
69319;SDS011;56467;53.502;49.248;2022-07-09T12:15:50;1.67;;;1.40;;
69319;SDS011;56467;53.502;49.248;2022-07-09T12:18:16;2.33;;;1.40;;
69319;SDS011;56467;53.502;49.248;2022-07-09T12:20:42;1.52;;;1.10;;
69319;SDS011;56467;53.502;49.248;2022-07-09T12:23:07;2.05;;;1.30;;
69319;SDS011;56467;53.502;49.248;2022-07-09T12:25:33;1.55;;;1.30;;
69319;SDS011;56467;53.502;49.248;2022-07-09T12:27:59;1.75;;;1.30;;
69319;SDS011;56467;53.502;49.248;2022-07-09T12:30:25;2.00;;;1.20;;
69319;SDS011;56467;53.502;49.248;2022-07-09T12:32:50;2.20;;;1.10;;
69319;SDS011;56467;53.502;49.248;2022-07-09T12:35:16;2.00;;;1.20;;
69319;SDS011;56467;53.502;49.248;2022-07-09T12:37:42;1.98;;;1.20;;
69319;SDS011;56467;53.502;49.248;2022-07-09T12:40:08;1.85;;;1.38;;
69319;SDS011;56467;53.502;49.248;2022-07-09T12:42:36;2.22;;;1.30;;
69319;SDS011;56467;53.502;49.248;2022-07-09T12:45:03;1.27;;;0.95;;
69319;SDS011;56467;53.502;49.248;2022-07-09T12:47:29;1.48;;;1.10;;
69319;SDS011;56467;53.502;49.248;2022-07-09T12:49:55;1.10;;;1.00;;
69319;SDS011;56467;53.502;49.248;2022-07-09T12:52:20;1.25;;;1.15;;
69319;SDS011;56467;53.502;49.248;2022-07-09T12:54:46;1.40;;;1.20;;
69319;SDS011;56467;53.502;49.248;2022-07-09T12:57:12;1.50;;;1.02;;
69319;SDS011;56467;53.502;49.248;2022-07-09T12:59:38;1.23;;;1.00;;
69319;SDS011;56467;53.502;49.248;2022-07-09T13:02:04;1.42;;;1.05;;
69319;SDS011;56467;53.502;49.248;2022-07-09T13:04:30;2.00;;;1.10;;
69319;SDS011;56467;53.502;49.248;2022-07-09T13:06:56;1.65;;;1.00;;
69319;SDS011;56467;53.502;49.248;2022-07-09T13:09:22;1.15;;;0.90;;
69319;SDS011;56467;53.502;49.248;2022-07-09T13:11:48;1.10;;;0.90;;
69319;SDS011;56467;53.502;49.248;2022-07-09T13:14:14;2.70;;;0.98;;
69319;SDS011;56467;53.502;49.248;2022-07-09T13:16:40;1.27;;;0.90;;
69319;SDS011;56467;53.502;49.248;2022-07-09T13:19:07;1.40;;;1.08;;
69319;SDS011;56467;53.502;49.248;2022-07-09T13:21:32;1.35;;;0.90;;
69319;SDS011;56467;53.502;49.248;2022-07-09T13:23:58;1.13;;;1.00;;
69319;SDS011;56467;53.502;49.248;2022-07-09T13:26:24;1.20;;;1.08;;
69319;SDS011;56467;53.502;49.248;2022-07-09T13:28:50;1.42;;;1.00;;
69319;SDS011;56467;53.502;49.248;2022-07-09T13:31:16;1.13;;;1.00;;
69319;SDS011;56467;53.502;49.248;2022-07-09T13:33:42;1.77;;;1.02;;
69319;SDS011;56467;53.502;49.248;2022-07-09T13:36:07;1.88;;;1.10;;
69319;SDS011;56467;53.502;49.248;2022-07-09T13:38:34;1.33;;;1.00;;
69319;SDS011;56467;53.502;49.248;2022-07-09T13:41:00;1.20;;;0.88;;
69319;SDS011;56467;53.502;49.248;2022-07-09T13:43:26;1.15;;;1.00;;
69319;SDS011;56467;53.502;49.248;2022-07-09T13:45:52;1.15;;;0.93;;
69319;SDS011;56467;53.502;49.248;2022-07-09T13:48:20;1.05;;;0.90;;
69319;SDS011;56467;53.502;49.248;2022-07-09T13:50:46;1.23;;;1.00;;
69319;SDS011;56467;53.502;49.248;2022-07-09T13:53:12;1.67;;;0.93;;
69319;SDS011;56467;53.502;49.248;2022-07-09T13:55:37;1.42;;;0.90;;
69319;SDS011;56467;53.502;49.248;2022-07-09T13:58:03;1.45;;;0.88;;
69319;SDS011;56467;53.502;49.248;2022-07-09T14:00:29;1.35;;;1.00;;
69319;SDS011;56467;53.502;49.248;2022-07-09T14:02:55;0.80;;;0.70;;
69319;SDS011;56467;53.502;49.248;2022-07-09T14:05:21;0.80;;;0.80;;
69319;SDS011;56467;53.502;49.248;2022-07-09T14:07:47;1.00;;;0.90;;
69319;SDS011;56467;53.502;49.248;2022-07-09T14:10:13;0.93;;;0.90;;
69319;SDS011;56467;53.502;49.248;2022-07-09T14:12:39;0.88;;;0.88;;
69319;SDS011;56467;53.502;49.248;2022-07-09T14:15:05;1.10;;;0.93;;
69319;SDS011;56467;53.502;49.248;2022-07-09T14:17:31;1.10;;;0.80;;
69319;SDS011;56467;53.502;49.248;2022-07-09T14:19:57;0.60;;;0.60;;
69319;SDS011;56467;53.502;49.248;2022-07-09T14:22:26;0.93;;;0.80;;
69319;SDS011;56467;53.502;49.248;2022-07-09T14:24:51;0.70;;;0.70;;
69319;SDS011;56467;53.502;49.248;2022-07-09T14:27:17;0.70;;;0.70;;
69319;SDS011;56467;53.502;49.248;2022-07-09T14:29:43;1.10;;;0.90;;
69319;SDS011;56467;53.502;49.248;2022-07-09T14:32:10;0.85;;;0.70;;
69319;SDS011;56467;53.502;49.248;2022-07-09T14:34:36;0.80;;;0.80;;